createdAt,value
2018-12-09T00:01:29.000Z,26.1
2018-12-09T00:03:29.000Z,26.2
2018-12-09T00:04:29.000Z,26.2
2018-12-09T00:06:29.000Z,26.1
2018-12-09T00:08:29.000Z,26.1
2018-12-09T00:09:29.000Z,26.1
2018-12-09T00:11:29.000Z,26.2
2018-12-09T00:12:29.000Z,26.2
2018-12-09T00:13:29.000Z,26.2
2018-12-09T00:14:29.000Z,26.2
2018-12-09T00:15:29.000Z,26.3
2018-12-09T00:16:29.000Z,26.3
2018-12-09T00:17:29.000Z,26.4
2018-12-09T00:19:29.000Z,26.4
2018-12-09T00:20:29.000Z,26.4
2018-12-09T00:21:29.000Z,26.4
2018-12-09T00:23:29.000Z,26.4
2018-12-09T00:24:29.000Z,26.4
2018-12-09T00:25:29.000Z,26.4
2018-12-09T00:27:29.000Z,26.4
2018-12-09T00:29:29.000Z,26.3
2018-12-09T00:30:29.000Z,26.3
2018-12-09T00:31:29.000Z,26.3
2018-12-09T00:33:29.000Z,26.2
2018-12-09T00:35:29.000Z,26.1
2018-12-09T00:36:29.000Z,26.2
2018-12-09T00:38:29.000Z,26.1
2018-12-09T00:40:14.000Z,26.1
2018-12-09T00:41:29.000Z,26.1
2018-12-09T00:42:29.000Z,26.1
2018-12-09T00:44:29.000Z,26.1
2018-12-09T00:45:29.000Z,26.1
2018-12-09T00:47:29.000Z,26.2
2018-12-09T00:49:29.000Z,26.2
2018-12-09T00:50:29.000Z,26.2
2018-12-09T00:52:29.000Z,26.2
2018-12-09T00:54:29.000Z,26.1
2018-12-09T00:56:29.000Z,26
2018-12-09T00:57:29.000Z,26
2018-12-09T00:59:14.000Z,26
2018-12-09T01:00:29.000Z,26
2018-12-09T01:02:29.000Z,26
2018-12-09T01:04:29.000Z,26
2018-12-09T01:06:29.000Z,26
2018-12-09T01:08:29.000Z,25.9
2018-12-09T01:10:29.000Z,25.9
2018-12-09T01:11:29.000Z,25.9
2018-12-09T01:12:29.000Z,25.9
2018-12-09T01:14:29.000Z,26
2018-12-09T01:15:29.000Z,26
2018-12-09T01:17:29.000Z,26
2018-12-09T01:18:29.000Z,26
2018-12-09T01:19:29.000Z,26.1
2018-12-09T01:21:29.000Z,26.1
2018-12-09T01:23:29.000Z,26.1
2018-12-09T01:24:29.000Z,26
2018-12-09T01:25:29.000Z,26.1
2018-12-09T01:27:29.000Z,26
2018-12-09T01:28:29.000Z,25.9
2018-12-09T01:30:29.000Z,25.9
2018-12-09T01:31:29.000Z,25.9
2018-12-09T01:33:29.000Z,26
2018-12-09T01:34:29.000Z,26
2018-12-09T01:36:14.000Z,26
2018-12-09T01:38:29.000Z,25.7
2018-12-09T01:40:29.000Z,25.5
2018-12-09T01:42:29.000Z,25.5
2018-12-09T01:43:29.000Z,25.6
2018-12-09T01:44:29.000Z,25.7
2018-12-09T01:45:29.000Z,25.8
2018-12-09T01:47:29.000Z,25.9
2018-12-09T01:49:29.000Z,25.9
2018-12-09T01:50:29.000Z,25.9
2018-12-09T01:52:29.000Z,25.9
2018-12-09T01:53:29.000Z,26
2018-12-09T01:55:29.000Z,26
2018-12-09T01:57:29.000Z,26
2018-12-09T01:58:29.000Z,26
2018-12-09T02:00:14.000Z,25.9
2018-12-09T02:01:29.000Z,25.9
2018-12-09T02:02:29.000Z,25.9
2018-12-09T02:04:29.000Z,26
2018-12-09T02:06:14.000Z,26
2018-12-09T02:07:29.000Z,25.9
2018-12-09T02:09:29.000Z,25.8
2018-12-09T02:10:29.000Z,25.8
2018-12-09T02:12:29.000Z,25.8
2018-12-09T02:14:29.000Z,25.8
2018-12-09T02:16:29.000Z,25.8
2018-12-09T02:17:29.000Z,25.8
2018-12-09T02:19:29.000Z,25.9
2018-12-09T02:21:29.000Z,25.9
2018-12-09T02:23:29.000Z,25.9
2018-12-09T02:24:29.000Z,25.9
2018-12-09T02:26:29.000Z,26
2018-12-09T02:28:29.000Z,26
2018-12-09T02:30:29.000Z,25.8
2018-12-09T02:32:29.000Z,25.7
2018-12-09T02:34:29.000Z,25.7
2018-12-09T02:36:29.000Z,25.7
2018-12-09T02:37:29.000Z,25.7
2018-12-09T02:38:29.000Z,25.8
2018-12-09T02:40:29.000Z,25.9
2018-12-09T02:42:14.000Z,25.8
2018-12-09T02:43:29.000Z,25.8
2018-12-09T02:45:14.000Z,25.8
2018-12-09T02:46:29.000Z,25.7
2018-12-09T02:47:29.000Z,25.6
2018-12-09T02:49:29.000Z,25.6
2018-12-09T02:50:29.000Z,25.6
2018-12-09T02:52:29.000Z,25.6
2018-12-09T02:54:29.000Z,25.7
2018-12-09T02:56:29.000Z,25.7
2018-12-09T02:58:29.000Z,25.7
2018-12-09T03:00:29.000Z,25.8
2018-12-09T03:02:29.000Z,25.8
2018-12-09T03:03:29.000Z,25.8
2018-12-09T03:04:29.000Z,25.9
2018-12-09T03:06:29.000Z,25.9
2018-12-09T03:07:29.000Z,25.9
2018-12-09T03:09:29.000Z,25.9
2018-12-09T03:11:29.000Z,25.8
2018-12-09T03:12:29.000Z,25.8
2018-12-09T03:14:14.000Z,25.9
2018-12-09T03:15:29.000Z,25.8
2018-12-09T03:16:29.000Z,25.8
2018-12-09T03:18:29.000Z,25.9
2018-12-09T03:19:29.000Z,25.9
2018-12-09T03:21:29.000Z,26
2018-12-09T03:22:29.000Z,26
2018-12-09T03:24:14.000Z,26.1
2018-12-09T03:25:29.000Z,26
2018-12-09T03:26:29.000Z,26
2018-12-09T03:28:29.000Z,25.9
2018-12-09T03:30:14.000Z,25.8
2018-12-09T03:31:29.000Z,25.8
2018-12-09T03:32:29.000Z,25.8
2018-12-09T03:34:29.000Z,25.9
2018-12-09T03:36:14.000Z,26
2018-12-09T03:37:29.000Z,25.9
2018-12-09T03:38:29.000Z,25.9
2018-12-09T03:40:14.000Z,25.9
2018-12-09T03:41:29.000Z,25.9
2018-12-09T03:42:29.000Z,25.9
2018-12-09T03:44:29.000Z,25.9
2018-12-09T03:45:29.000Z,25.9
2018-12-09T03:47:14.000Z,25.9
2018-12-09T03:48:29.000Z,25.9
2018-12-09T03:49:29.000Z,25.9
2018-12-09T03:50:29.000Z,26
2018-12-09T03:51:29.000Z,26
2018-12-09T03:53:14.000Z,26.1
2018-12-09T03:54:29.000Z,26.1
2018-12-09T03:55:29.000Z,26.1
2018-12-09T03:57:29.000Z,26.1
2018-12-09T03:59:29.000Z,26
2018-12-09T04:00:29.000Z,26
2018-12-09T04:01:29.000Z,26
2018-12-09T04:03:29.000Z,26
2018-12-09T04:04:29.000Z,26
2018-12-09T04:06:29.000Z,25.9
2018-12-09T04:08:29.000Z,25.9
2018-12-09T04:09:29.000Z,25.9
2018-12-09T04:11:14.000Z,25.9
2018-12-09T04:12:29.000Z,25.8
2018-12-09T04:13:29.000Z,25.8
2018-12-09T04:15:14.000Z,25.9
2018-12-09T04:16:29.000Z,25.9
2018-12-09T04:18:29.000Z,25.8
2018-12-09T04:20:29.000Z,25.8
2018-12-09T04:22:29.000Z,25.7
2018-12-09T04:23:29.000Z,25.7
2018-12-09T04:25:29.000Z,25.8
2018-12-09T04:27:29.000Z,25.7
2018-12-09T04:28:29.000Z,25.7
2018-12-09T04:29:29.000Z,25.7
2018-12-09T04:31:29.000Z,25.8
2018-12-09T04:32:29.000Z,25.8
2018-12-09T04:34:29.000Z,25.7
2018-12-09T04:36:29.000Z,25.8
2018-12-09T04:37:29.000Z,25.8
2018-12-09T04:38:29.000Z,25.9
2018-12-09T04:40:14.000Z,26
2018-12-09T04:41:29.000Z,26
2018-12-09T04:42:29.000Z,25.9
2018-12-09T04:44:29.000Z,25.9
2018-12-09T04:46:13.000Z,25.9
2018-12-09T04:47:29.000Z,25.8
2018-12-09T04:48:29.000Z,25.9
2018-12-09T04:50:29.000Z,25.8
2018-12-09T04:51:29.000Z,25.8
2018-12-09T04:53:29.000Z,25.8
2018-12-09T04:55:29.000Z,25.8
2018-12-09T04:57:29.000Z,25.9
2018-12-09T04:58:29.000Z,25.9
2018-12-09T05:00:29.000Z,25.9
2018-12-09T05:01:29.000Z,25.9
2018-12-09T05:03:29.000Z,25.8
2018-12-09T05:05:29.000Z,25.8
2018-12-09T05:07:29.000Z,25.8
2018-12-09T05:09:29.000Z,25.8
2018-12-09T05:10:29.000Z,25.8
2018-12-09T05:12:29.000Z,25.7
2018-12-09T05:14:29.000Z,25.8
2018-12-09T05:16:29.000Z,25.8
2018-12-09T05:18:29.000Z,25.8
2018-12-09T05:19:29.000Z,25.8
2018-12-09T05:21:29.000Z,25.8
2018-12-09T05:22:29.000Z,25.9
2018-12-09T05:24:29.000Z,25.9
2018-12-09T05:25:29.000Z,25.9
2018-12-09T05:26:29.000Z,26
2018-12-09T05:28:29.000Z,26
2018-12-09T05:29:29.000Z,26
2018-12-09T05:31:13.000Z,26
2018-12-09T05:32:29.000Z,25.9
2018-12-09T05:33:29.000Z,26
2018-12-09T05:35:29.000Z,26
2018-12-09T05:37:29.000Z,25.9
2018-12-09T05:38:29.000Z,25.9
2018-12-09T05:40:29.000Z,25.9
2018-12-09T05:42:29.000Z,25.8
2018-12-09T05:44:29.000Z,25.7
2018-12-09T05:46:29.000Z,25.7
2018-12-09T05:47:29.000Z,25.7
2018-12-09T05:48:29.000Z,25.7
2018-12-09T05:50:29.000Z,25.9
2018-12-09T05:51:29.000Z,25.9
2018-12-09T05:53:29.000Z,25.9
2018-12-09T05:55:14.000Z,25.9
2018-12-09T05:56:29.000Z,25.8
2018-12-09T05:58:29.000Z,25.7
2018-12-09T05:59:29.000Z,25.7
2018-12-09T06:01:29.000Z,25.7
2018-12-09T06:03:29.000Z,25.8
2018-12-09T06:05:29.000Z,25.7
2018-12-09T06:06:29.000Z,25.7
2018-12-09T06:08:29.000Z,25.7
2018-12-09T06:10:13.000Z,25.6
2018-12-09T06:11:29.000Z,25.6
2018-12-09T06:12:29.000Z,25.7
2018-12-09T06:14:29.000Z,25.7
2018-12-09T06:15:29.000Z,25.7
2018-12-09T06:17:29.000Z,25.6
2018-12-09T06:19:29.000Z,25.6
2018-12-09T06:21:29.000Z,25.7
2018-12-09T06:22:29.000Z,25.8
2018-12-09T06:24:29.000Z,25.9
2018-12-09T06:25:29.000Z,25.9
2018-12-09T06:27:29.000Z,25.9
2018-12-09T06:29:29.000Z,25.8
2018-12-09T06:30:29.000Z,25.8
2018-12-09T06:31:29.000Z,25.9
2018-12-09T06:33:29.000Z,26
2018-12-09T06:34:29.000Z,26
2018-12-09T06:36:29.000Z,25.9
2018-12-09T06:38:13.000Z,25.8
2018-12-09T06:39:29.000Z,25.8
2018-12-09T06:41:13.000Z,25.8
2018-12-09T06:42:29.000Z,25.7
2018-12-09T06:44:13.000Z,25.7
2018-12-09T06:45:29.000Z,25.6
2018-12-09T06:47:29.000Z,25.6
2018-12-09T06:49:29.000Z,25.7
2018-12-09T06:51:29.000Z,25.7
2018-12-09T06:52:29.000Z,25.7
2018-12-09T06:54:29.000Z,25.6
2018-12-09T06:55:29.000Z,25.6
2018-12-09T06:56:29.000Z,25.6
2018-12-09T06:57:29.000Z,25.7
2018-12-09T06:59:14.000Z,25.9
2018-12-09T07:00:29.000Z,25.8
2018-12-09T07:01:29.000Z,25.8
2018-12-09T07:03:29.000Z,25.7
2018-12-09T07:05:13.000Z,25.7
2018-12-09T07:06:29.000Z,25.7
2018-12-09T07:08:14.000Z,25.7
2018-12-09T07:09:29.000Z,25.6
2018-12-09T07:10:29.000Z,25.6
2018-12-09T07:12:29.000Z,25.6
2018-12-09T07:14:29.000Z,25.6
2018-12-09T07:15:29.000Z,25.7
2018-12-09T07:17:14.000Z,25.8
2018-12-09T07:18:29.000Z,25.7
2018-12-09T07:19:29.000Z,25.7
2018-12-09T07:21:13.000Z,25.7
2018-12-09T07:22:29.000Z,25.7
2018-12-09T07:23:29.000Z,25.7
2018-12-09T07:24:29.000Z,25.8
2018-12-09T07:26:14.000Z,25.9
2018-12-09T07:27:29.000Z,25.9
2018-12-09T07:28:29.000Z,25.8
2018-12-09T07:30:29.000Z,25.8
2018-12-09T07:32:28.000Z,25.8
2018-12-09T07:33:28.000Z,25.8
2018-12-09T07:34:28.000Z,25.8
2018-12-09T07:36:28.000Z,25.9
2018-12-09T07:37:28.000Z,25.9
2018-12-09T07:39:28.000Z,25.9
2018-12-09T07:40:28.000Z,25.8
2018-12-09T07:41:28.000Z,25.9
2018-12-09T07:43:28.000Z,26
2018-12-09T07:45:28.000Z,25.9
2018-12-09T07:47:28.000Z,25.8
2018-12-09T07:48:28.000Z,25.8
2018-12-09T07:50:28.000Z,25.8
2018-12-09T07:51:28.000Z,25.8
2018-12-09T07:53:28.000Z,25.9
2018-12-09T07:55:28.000Z,25.9
2018-12-09T07:56:28.000Z,25.9
2018-12-09T07:57:28.000Z,25.9
2018-12-09T07:59:28.000Z,26
2018-12-09T08:00:28.000Z,26.1
2018-12-09T08:01:28.000Z,26.1
2018-12-09T08:02:28.000Z,26.2
2018-12-09T08:04:28.000Z,26.1
2018-12-09T08:05:28.000Z,26.1
2018-12-09T08:06:28.000Z,26.1
2018-12-09T08:08:28.000Z,26.2
2018-12-09T08:10:28.000Z,26.1
2018-12-09T08:11:28.000Z,26.1
2018-12-09T08:12:28.000Z,26.1
2018-12-09T08:14:28.000Z,26.1
2018-12-09T08:16:28.000Z,26.1
2018-12-09T08:18:28.000Z,26.1
2018-12-09T08:19:28.000Z,26.1
2018-12-09T08:21:28.000Z,26.1
2018-12-09T08:23:28.000Z,26.1
2018-12-09T08:24:28.000Z,26.1
2018-12-09T08:26:28.000Z,26.1
2018-12-09T08:27:28.000Z,26.2
2018-12-09T08:28:28.000Z,26.2
2018-12-09T08:30:28.000Z,26.3
2018-12-09T08:32:28.000Z,26.2
2018-12-09T08:33:28.000Z,26.1
2018-12-09T08:35:14.000Z,26.2
2018-12-09T08:36:29.000Z,26
2018-12-09T08:38:29.000Z,26
2018-12-09T08:39:29.000Z,26
2018-12-09T08:41:29.000Z,26.1
2018-12-09T08:43:29.000Z,26.1
2018-12-09T08:45:14.000Z,26
2018-12-09T08:46:29.000Z,26
2018-12-09T08:47:29.000Z,26
2018-12-09T08:49:29.000Z,26.1
2018-12-09T08:50:29.000Z,26.1
2018-12-09T08:52:29.000Z,26.1
2018-12-09T08:53:29.000Z,26.1
2018-12-09T08:55:29.000Z,26.1
2018-12-09T08:57:29.000Z,26.1
2018-12-09T08:59:29.000Z,26.1
2018-12-09T09:00:29.000Z,26.1
2018-12-09T09:02:29.000Z,26.1
2018-12-09T09:03:29.000Z,26.1
2018-12-09T09:04:29.000Z,26.1
2018-12-09T09:05:29.000Z,26.2
2018-12-09T09:06:29.000Z,26.3
2018-12-09T09:08:29.000Z,26.4
2018-12-09T09:09:29.000Z,26.4
2018-12-09T09:11:29.000Z,26.4
2018-12-09T09:12:29.000Z,26.4
2018-12-09T09:13:29.000Z,26.4
2018-12-09T09:14:29.000Z,26.4
2018-12-09T09:16:29.000Z,26.5
2018-12-09T09:18:14.000Z,26.5
2018-12-09T09:19:29.000Z,26.4
2018-12-09T09:21:29.000Z,26.2
2018-12-09T09:22:29.000Z,26.2
2018-12-09T09:24:29.000Z,26.1
2018-12-09T09:26:14.000Z,26.1
2018-12-09T09:27:29.000Z,26.1
2018-12-09T09:29:14.000Z,26.1
2018-12-09T09:30:14.000Z,26
2018-12-09T09:31:29.000Z,26
2018-12-09T09:33:29.000Z,26
2018-12-09T09:35:29.000Z,26
2018-12-09T09:36:29.000Z,26
2018-12-09T09:38:29.000Z,26.1
2018-12-09T09:40:29.000Z,26.1
2018-12-09T09:42:29.000Z,26
2018-12-09T09:43:29.000Z,26
2018-12-09T09:44:29.000Z,26.1
2018-12-09T09:45:29.000Z,26.1
2018-12-09T09:47:29.000Z,26.2
2018-12-09T09:48:29.000Z,26.2
2018-12-09T09:50:29.000Z,26.2
2018-12-09T09:51:29.000Z,26.2
2018-12-09T09:53:29.000Z,26.2
2018-12-09T09:55:14.000Z,26.2
2018-12-09T09:56:29.000Z,26.1
2018-12-09T09:57:29.000Z,26.1
2018-12-09T09:59:29.000Z,26.2
2018-12-09T10:01:29.000Z,26.1
2018-12-09T10:03:29.000Z,26
2018-12-09T10:05:14.000Z,26
2018-12-09T10:06:29.000Z,26
2018-12-09T10:08:29.000Z,25.9
2018-12-09T10:10:29.000Z,25.9
2018-12-09T10:11:29.000Z,25.9
2018-12-09T10:12:29.000Z,25.9
2018-12-09T10:13:29.000Z,26
2018-12-09T10:14:29.000Z,26
2018-12-09T10:16:29.000Z,26
2018-12-09T10:18:29.000Z,26
2018-12-09T10:20:29.000Z,26
2018-12-09T10:21:29.000Z,26
2018-12-09T10:23:14.000Z,26
2018-12-09T10:25:29.000Z,25.8
2018-12-09T10:26:29.000Z,25.8
2018-12-09T10:28:29.000Z,25.8
2018-12-09T10:30:14.000Z,25.9
2018-12-09T10:31:29.000Z,25.9
2018-12-09T10:33:29.000Z,25.9
2018-12-09T10:35:29.000Z,25.9
2018-12-09T10:37:29.000Z,25.8
2018-12-09T10:39:29.000Z,25.8
2018-12-09T10:41:29.000Z,25.8
2018-12-09T10:43:29.000Z,25.9
2018-12-09T10:45:29.000Z,25.9
2018-12-09T10:47:29.000Z,25.9
2018-12-09T10:48:29.000Z,26
2018-12-09T10:49:29.000Z,26
2018-12-09T10:51:29.000Z,26
2018-12-09T10:53:29.000Z,26
2018-12-09T10:55:29.000Z,26
2018-12-09T10:57:29.000Z,25.9
2018-12-09T10:59:29.000Z,25.8
2018-12-09T11:00:29.000Z,25.8
2018-12-09T11:02:29.000Z,25.8
2018-12-09T11:04:29.000Z,25.9
2018-12-09T11:05:29.000Z,25.9
2018-12-09T11:07:29.000Z,26
2018-12-09T11:09:29.000Z,25.9
2018-12-09T11:10:29.000Z,25.9
2018-12-09T11:11:29.000Z,25.9
2018-12-09T11:12:29.000Z,26
2018-12-09T11:14:29.000Z,26.1
2018-12-09T11:15:29.000Z,26.1
2018-12-09T11:17:14.000Z,26.1
2018-12-09T11:18:29.000Z,26.1
2018-12-09T11:20:29.000Z,26
2018-12-09T11:21:29.000Z,26
2018-12-09T11:23:29.000Z,26
2018-12-09T11:25:29.000Z,25.9
2018-12-09T11:27:29.000Z,25.9
2018-12-09T11:28:29.000Z,25.9
2018-12-09T11:29:29.000Z,25.9
2018-12-09T11:31:29.000Z,26
2018-12-09T11:32:29.000Z,26
2018-12-09T11:33:29.000Z,26.1
2018-12-09T11:35:29.000Z,26.1
2018-12-09T11:36:29.000Z,26.1
2018-12-09T11:38:14.000Z,26.2
2018-12-09T11:39:29.000Z,26.2
2018-12-09T11:41:29.000Z,26.1
2018-12-09T11:42:29.000Z,26.1
2018-12-09T11:44:29.000Z,26.1
2018-12-09T11:45:29.000Z,26.1
2018-12-09T11:47:29.000Z,26.1
2018-12-09T11:48:29.000Z,26.2
2018-12-09T11:50:29.000Z,26.2
2018-12-09T11:51:29.000Z,26.1
2018-12-09T11:52:29.000Z,26.2
2018-12-09T11:53:29.000Z,26.2
2018-12-09T11:55:29.000Z,26.3
2018-12-09T11:56:29.000Z,26.3
2018-12-09T11:58:29.000Z,26.3
2018-12-09T11:59:29.000Z,26.3
2018-12-09T12:01:29.000Z,26.3
2018-12-09T12:03:29.000Z,26.2
2018-12-09T12:04:29.000Z,26.2
2018-12-09T12:05:29.000Z,26.3
2018-12-09T12:07:29.000Z,26.3
2018-12-09T12:09:29.000Z,26.3
2018-12-09T12:11:29.000Z,26.3
2018-12-09T12:12:29.000Z,26.3
2018-12-09T12:13:29.000Z,26.4
2018-12-09T12:15:14.000Z,26.4
2018-12-09T12:16:29.000Z,26.4
2018-12-09T12:18:29.000Z,26.4
2018-12-09T12:19:29.000Z,26.4
2018-12-09T12:21:29.000Z,26.4
2018-12-09T12:23:29.000Z,26.4
2018-12-09T12:24:29.000Z,26.4
2018-12-09T12:26:29.000Z,26.4
2018-12-09T12:27:29.000Z,26.4
2018-12-09T12:29:29.000Z,26.4
2018-12-09T12:30:29.000Z,26.4
2018-12-09T12:31:29.000Z,26.4
2018-12-09T12:33:29.000Z,26.4
2018-12-09T12:35:29.000Z,26.4
2018-12-09T12:37:29.000Z,26.4
2018-12-09T12:39:29.000Z,26.3
2018-12-09T12:41:29.000Z,26.3
2018-12-09T12:43:29.000Z,26.1
2018-12-09T12:44:29.000Z,26
2018-12-09T12:46:29.000Z,26
2018-12-09T12:47:29.000Z,26.1
2018-12-09T12:49:14.000Z,26.2
2018-12-09T12:50:29.000Z,26.3
2018-12-09T12:52:14.000Z,26.5
2018-12-09T12:53:29.000Z,26.5
2018-12-09T12:55:29.000Z,26.5
2018-12-09T12:56:29.000Z,26.5
2018-12-09T12:58:29.000Z,26.5
2018-12-09T12:59:29.000Z,26.5
2018-12-09T13:01:29.000Z,26.6
2018-12-09T13:02:29.000Z,26.8
2018-12-09T13:04:29.000Z,27
2018-12-09T13:05:29.000Z,27.1
2018-12-09T13:07:29.000Z,27.1
2018-12-09T13:08:29.000Z,27.2
2018-12-09T13:10:14.000Z,27.2
2018-12-09T13:11:29.000Z,27.1
2018-12-09T13:12:29.000Z,27.1
2018-12-09T13:14:29.000Z,27
2018-12-09T13:16:29.000Z,27
2018-12-09T13:18:29.000Z,26.9
2018-12-09T13:20:29.000Z,26.9
2018-12-09T13:22:29.000Z,26.9
2018-12-09T13:23:29.000Z,26.9
2018-12-09T13:25:29.000Z,26.9
2018-12-09T13:27:29.000Z,26.9
2018-12-09T13:28:29.000Z,26.8
2018-12-09T13:30:29.000Z,26.8
2018-12-09T13:31:29.000Z,26.8
2018-12-09T13:33:29.000Z,26.8
2018-12-09T13:35:14.000Z,26.8
2018-12-09T13:36:29.000Z,26.7
2018-12-09T13:38:29.000Z,26.6
2018-12-09T13:39:29.000Z,26.5
2018-12-09T13:41:29.000Z,26.5
2018-12-09T13:43:14.000Z,26.5
2018-12-09T13:44:29.000Z,26.4
2018-12-09T13:46:29.000Z,26.5
2018-12-09T13:47:29.000Z,26.5
2018-12-09T13:49:29.000Z,26.6
2018-12-09T13:50:29.000Z,26.6
2018-12-09T13:52:29.000Z,26.6
2018-12-09T13:54:29.000Z,26.6
2018-12-09T13:56:29.000Z,26.5
2018-12-09T13:58:14.000Z,26.5
2018-12-09T13:59:29.000Z,26.5
2018-12-09T14:01:14.000Z,26.4
2018-12-09T14:02:29.000Z,26.3
2018-12-09T14:03:29.000Z,26.4
2018-12-09T14:04:29.000Z,26.4
2018-12-09T14:06:29.000Z,26.5
2018-12-09T14:07:29.000Z,26.5
2018-12-09T14:09:29.000Z,26.5
2018-12-09T14:10:29.000Z,26.6
2018-12-09T14:11:29.000Z,26.6
2018-12-09T14:13:29.000Z,26.6
2018-12-09T14:14:29.000Z,26.6
2018-12-09T14:15:29.000Z,26.7
2018-12-09T14:16:29.000Z,26.7
2018-12-09T14:18:29.000Z,26.6
2018-12-09T14:19:29.000Z,26.6
2018-12-09T14:21:29.000Z,26.6
2018-12-09T14:23:29.000Z,26.5
2018-12-09T14:25:29.000Z,26.2
2018-12-09T14:26:29.000Z,26.1
2018-12-09T14:27:29.000Z,26.1
2018-12-09T14:29:29.000Z,26.1
2018-12-09T14:31:29.000Z,26.1
2018-12-09T14:32:29.000Z,26.1
2018-12-09T14:34:29.000Z,26.1
2018-12-09T14:36:29.000Z,26.1
2018-12-09T14:38:29.000Z,26.1
2018-12-09T14:39:29.000Z,26.1
2018-12-09T14:41:29.000Z,26.1
2018-12-09T14:42:29.000Z,26.2
2018-12-09T14:44:29.000Z,26.2
2018-12-09T14:45:29.000Z,26.3
2018-12-09T14:47:29.000Z,26.2
2018-12-09T14:48:29.000Z,26.2
2018-12-09T14:49:29.000Z,26.3
2018-12-09T14:50:29.000Z,26.3
2018-12-09T14:52:29.000Z,26.3
2018-12-09T14:54:29.000Z,26.3
2018-12-09T14:56:29.000Z,26.3
2018-12-09T14:57:29.000Z,26.3
2018-12-09T14:59:29.000Z,26.3
2018-12-09T15:01:29.000Z,26.2
2018-12-09T15:03:29.000Z,26.2
2018-12-09T15:05:29.000Z,26.1
2018-12-09T15:06:29.000Z,26.1
2018-12-09T15:08:14.000Z,26.2
2018-12-09T15:09:29.000Z,26.2
2018-12-09T15:11:29.000Z,26.1
2018-12-09T15:13:29.000Z,26.1
2018-12-09T15:15:29.000Z,26.1
2018-12-09T15:16:29.000Z,26.1
2018-12-09T15:18:29.000Z,26.2
2018-12-09T15:19:29.000Z,26.2
2018-12-09T15:20:29.000Z,26.3
2018-12-09T15:22:29.000Z,26.3
2018-12-09T15:23:29.000Z,26.3
2018-12-09T15:25:14.000Z,26.4
2018-12-09T15:26:29.000Z,26.3
2018-12-09T15:28:29.000Z,26.3
2018-12-09T15:29:29.000Z,26.3
2018-12-09T15:30:29.000Z,26.3
2018-12-09T15:32:29.000Z,26.2
2018-12-09T15:34:29.000Z,26.1
2018-12-09T15:35:29.000Z,26.1
2018-12-09T15:37:29.000Z,26.1
2018-12-09T15:39:29.000Z,26
2018-12-09T15:40:29.000Z,26
2018-12-09T15:41:29.000Z,26
2018-12-09T15:42:29.000Z,26.1
2018-12-09T15:43:29.000Z,26.2
2018-12-09T15:45:29.000Z,26.3
2018-12-09T15:46:29.000Z,26.3
2018-12-09T15:48:29.000Z,26.3
2018-12-09T15:49:29.000Z,26.3
2018-12-09T15:50:29.000Z,26.4
2018-12-09T15:52:29.000Z,26.4
2018-12-09T15:53:29.000Z,26.4
2018-12-09T15:54:29.000Z,26.4
2018-12-09T15:56:29.000Z,26.4
2018-12-09T15:58:29.000Z,26.3
2018-12-09T16:00:29.000Z,26.3
2018-12-09T16:02:29.000Z,26.2
2018-12-09T16:04:29.000Z,26.1
2018-12-09T16:05:29.000Z,26.1
2018-12-09T16:07:29.000Z,26.1
2018-12-09T16:08:29.000Z,26.1
2018-12-09T16:09:29.000Z,26.1
2018-12-09T16:10:29.000Z,26.2
2018-12-09T16:12:29.000Z,26.3
2018-12-09T16:13:29.000Z,26.3
2018-12-09T16:14:29.000Z,26.3
2018-12-09T16:16:29.000Z,26.2
2018-12-09T16:17:29.000Z,26.2
2018-12-09T16:19:29.000Z,26.1
2018-12-09T16:20:29.000Z,26.1
2018-12-09T16:22:29.000Z,26.1
2018-12-09T16:23:29.000Z,26.1
2018-12-09T16:25:29.000Z,26.2
2018-12-09T16:27:29.000Z,26.2
2018-12-09T16:28:29.000Z,26.1
2018-12-09T16:30:29.000Z,26.1
2018-12-09T16:31:29.000Z,26.2
2018-12-09T16:33:29.000Z,26.2
2018-12-09T16:35:29.000Z,26.2
2018-12-09T16:37:29.000Z,26.1
2018-12-09T16:38:29.000Z,26.1
2018-12-09T16:40:29.000Z,26.1
2018-12-09T16:41:29.000Z,26.1
2018-12-09T16:42:29.000Z,26.1
2018-12-09T16:43:29.000Z,26.1
2018-12-09T16:45:29.000Z,26.2
2018-12-09T16:47:29.000Z,26.2
2018-12-09T16:49:29.000Z,26.1
2018-12-09T16:50:29.000Z,26.1
2018-12-09T16:52:29.000Z,26.1
2018-12-09T16:54:29.000Z,26
2018-12-09T16:55:29.000Z,26
2018-12-09T16:57:29.000Z,25.9
2018-12-09T16:58:29.000Z,25.9
2018-12-09T16:59:29.000Z,26
2018-12-09T17:01:29.000Z,26
2018-12-09T17:03:29.000Z,26
2018-12-09T17:04:29.000Z,26
2018-12-09T17:05:29.000Z,26
2018-12-09T17:07:29.000Z,26.1
2018-12-09T17:08:29.000Z,26.1
2018-12-09T17:10:14.000Z,26.1
2018-12-09T17:11:29.000Z,26.1
2018-12-09T17:12:29.000Z,26.1
2018-12-09T17:14:29.000Z,26.2
2018-12-09T17:16:29.000Z,26
2018-12-09T17:18:14.000Z,25.9
2018-12-09T17:19:29.000Z,25.9
2018-12-09T17:20:29.000Z,25.9
2018-12-09T17:22:29.000Z,25.9
2018-12-09T17:24:29.000Z,25.9
2018-12-09T17:26:29.000Z,25.9
2018-12-09T17:28:29.000Z,25.8
2018-12-09T17:30:29.000Z,25.7
2018-12-09T17:31:29.000Z,25.7
2018-12-09T17:33:29.000Z,25.8
2018-12-09T17:34:29.000Z,25.8
2018-12-09T17:36:29.000Z,25.9
2018-12-09T17:38:29.000Z,25.9
2018-12-09T17:39:29.000Z,25.9
2018-12-09T17:41:29.000Z,25.9
2018-12-09T17:43:29.000Z,25.9
2018-12-09T17:44:29.000Z,25.9
2018-12-09T17:46:29.000Z,25.9
2018-12-09T17:48:29.000Z,26
2018-12-09T17:50:29.000Z,25.9
2018-12-09T17:52:29.000Z,25.9
2018-12-09T17:53:29.000Z,25.9
2018-12-09T17:54:29.000Z,26
2018-12-09T17:56:29.000Z,26
2018-12-09T17:58:29.000Z,25.9
2018-12-09T17:59:29.000Z,25.8
2018-12-09T18:01:29.000Z,25.9
2018-12-09T18:02:29.000Z,25.9
2018-12-09T18:04:29.000Z,25.9
2018-12-09T18:05:29.000Z,25.9
2018-12-09T18:06:29.000Z,26
2018-12-09T18:08:29.000Z,26.1
2018-12-09T18:09:29.000Z,26.1
2018-12-09T18:11:29.000Z,26.1
2018-12-09T18:13:29.000Z,26
2018-12-09T18:15:29.000Z,26
2018-12-09T18:17:29.000Z,25.9
2018-12-09T18:18:29.000Z,25.9
2018-12-09T18:20:29.000Z,26
2018-12-09T18:21:29.000Z,26
2018-12-09T18:23:29.000Z,26
2018-12-09T18:24:29.000Z,26.1
2018-12-09T18:25:29.000Z,26.1
2018-12-09T18:27:29.000Z,26
2018-12-09T18:28:29.000Z,26
2018-12-09T18:30:29.000Z,26
2018-12-09T18:31:29.000Z,26
2018-12-09T18:32:29.000Z,26
2018-12-09T18:34:29.000Z,26.1
2018-12-09T18:35:29.000Z,26.1
2018-12-09T18:36:29.000Z,26.1
2018-12-09T18:37:29.000Z,26.2
2018-12-09T18:39:29.000Z,26.1
2018-12-09T18:41:29.000Z,26
2018-12-09T18:42:29.000Z,26
2018-12-09T18:43:29.000Z,26
2018-12-09T18:44:29.000Z,26.1
2018-12-09T18:45:29.000Z,26.1
2018-12-09T18:47:29.000Z,26.1
2018-12-09T18:48:29.000Z,26.1
2018-12-09T18:49:29.000Z,26.1
2018-12-09T18:51:29.000Z,26.1
2018-12-09T18:52:29.000Z,26.1
2018-12-09T18:54:29.000Z,26.1
2018-12-09T18:56:29.000Z,26.1
2018-12-09T18:57:29.000Z,26.1
2018-12-09T18:59:29.000Z,26.1
2018-12-09T19:00:29.000Z,26.1
2018-12-09T19:02:29.000Z,26.1
2018-12-09T19:03:29.000Z,26.1
2018-12-09T19:05:29.000Z,26
2018-12-09T19:07:29.000Z,26
2018-12-09T19:09:29.000Z,26
2018-12-09T19:11:29.000Z,25.9
2018-12-09T19:12:29.000Z,25.9
2018-12-09T19:14:14.000Z,25.9
2018-12-09T19:15:29.000Z,25.9
2018-12-09T19:17:29.000Z,25.9
2018-12-09T19:18:29.000Z,25.9
2018-12-09T19:19:29.000Z,25.9
2018-12-09T19:20:29.000Z,26
2018-12-09T19:22:29.000Z,26.1
2018-12-09T19:23:29.000Z,26.1
2018-12-09T19:25:29.000Z,26.1
2018-12-09T19:27:29.000Z,26.1
2018-12-09T19:28:29.000Z,26
2018-12-09T19:29:29.000Z,26.1
2018-12-09T19:31:14.000Z,26.1
2018-12-09T19:32:29.000Z,26.1
2018-12-09T19:33:29.000Z,26.1
2018-12-09T19:35:29.000Z,26.1
2018-12-09T19:37:29.000Z,26.1
2018-12-09T19:39:29.000Z,26.1
2018-12-09T19:40:29.000Z,26.1
2018-12-09T19:42:14.000Z,26.1
2018-12-09T19:43:29.000Z,26
2018-12-09T19:45:29.000Z,26
2018-12-09T19:47:29.000Z,25.9
2018-12-09T19:49:29.000Z,25.8
2018-12-09T19:51:29.000Z,25.7
2018-12-09T19:53:29.000Z,25.6
2018-12-09T19:54:29.000Z,25.6
2018-12-09T19:56:29.000Z,25.6
2018-12-09T19:58:29.000Z,25.6
2018-12-09T20:00:29.000Z,25.6
2018-12-09T20:02:29.000Z,25.5
2018-12-09T20:04:29.000Z,25.5
2018-12-09T20:06:29.000Z,25.4
2018-12-09T20:08:29.000Z,25.5
2018-12-09T20:09:29.000Z,25.5
2018-12-09T20:11:29.000Z,25.6
2018-12-09T20:13:29.000Z,25.7
2018-12-09T20:14:29.000Z,25.8
2018-12-09T20:15:29.000Z,25.8
2018-12-09T20:17:29.000Z,25.9
2018-12-09T20:18:29.000Z,26
2018-12-09T20:19:29.000Z,26
2018-12-09T20:21:29.000Z,26
2018-12-09T20:23:29.000Z,25.9
2018-12-09T20:24:29.000Z,25.8
2018-12-09T20:25:29.000Z,25.9
2018-12-09T20:27:14.000Z,25.9
2018-12-09T20:28:29.000Z,25.9
2018-12-09T20:30:29.000Z,25.8
2018-12-09T20:32:14.000Z,25.8
2018-12-09T20:33:29.000Z,25.7
2018-12-09T20:34:29.000Z,25.7
2018-12-09T20:35:29.000Z,25.8
2018-12-09T20:36:29.000Z,25.9
2018-12-09T20:38:29.000Z,26
2018-12-09T20:40:29.000Z,25.9
2018-12-09T20:42:29.000Z,25.8
2018-12-09T20:44:29.000Z,25.6
2018-12-09T20:45:29.000Z,25.6